sensor_id;sensor_type;location;lat;lon;timestamp;temperature;humidity
3701;DHT22;1866;48.374;10.766;2023-06-22T05:56:18;20.70;1.00
3701;DHT22;1866;48.374;10.766;2023-06-22T05:58:45;20.80;1.00
3701;DHT22;1866;48.374;10.766;2023-06-22T06:01:12;20.70;1.00
3701;DHT22;1866;48.374;10.766;2023-06-22T06:03:40;20.80;1.00
3701;DHT22;1866;48.374;10.766;2023-06-22T06:06:07;20.50;1.00
3701;DHT22;1866;48.374;10.766;2023-06-22T06:08:36;20.60;1.00
3701;DHT22;1866;48.374;10.766;2023-06-22T06:11:02;20.80;1.00
3701;DHT22;1866;48.374;10.766;2023-06-22T06:13:30;20.70;1.00
3701;DHT22;1866;48.374;10.766;2023-06-22T06:15:58;20.80;1.00
3701;DHT22;1866;48.374;10.766;2023-06-22T06:18:25;20.90;1.00
3701;DHT22;1866;48.374;10.766;2023-06-22T06:20:51;21.20;1.00
3701;DHT22;1866;48.374;10.766;2023-06-22T06:23:18;21.50;1.00
3701;DHT22;1866;48.374;10.766;2023-06-22T06:25:45;21.50;1.00
3701;DHT22;1866;48.374;10.766;2023-06-22T06:28:11;21.60;1.00
3701;DHT22;1866;48.374;10.766;2023-06-22T06:30:39;21.80;1.00
3701;DHT22;1866;48.374;10.766;2023-06-22T06:33:07;21.70;1.00
3701;DHT22;1866;48.374;10.766;2023-06-22T06:35:34;21.60;1.00
3701;DHT22;1866;48.374;10.766;2023-06-22T06:38:01;22.00;1.00
3701;DHT22;1866;48.374;10.766;2023-06-22T06:40:27;21.70;1.00
3701;DHT22;1866;48.374;10.766;2023-06-22T06:42:54;21.70;1.00
3701;DHT22;1866;48.374;10.766;2023-06-22T06:45:21;22.10;1.00
3701;DHT22;1866;48.374;10.766;2023-06-22T06:47:50;22.30;1.00
3701;DHT22;1866;48.374;10.766;2023-06-22T06:50:17;22.50;1.00
3701;DHT22;1866;48.374;10.766;2023-06-22T06:52:44;22.70;1.00
3701;DHT22;1866;48.374;10.766;2023-06-22T06:55:11;22.80;1.00
3701;DHT22;1866;48.374;10.766;2023-06-22T06:57:38;22.80;1.00
3701;DHT22;1866;48.374;10.766;2023-06-22T07:00:05;22.70;1.00
3701;DHT22;1866;48.374;10.766;2023-06-22T07:02:37;22.80;1.00
3701;DHT22;1866;48.374;10.766;2023-06-22T07:05:05;23.10;1.00
3701;DHT22;1866;48.374;10.766;2023-06-22T07:07:32;23.20;1.00
3701;DHT22;1866;48.374;10.766;2023-06-22T07:09:59;23.20;1.00
3701;DHT22;1866;48.374;10.766;2023-06-22T07:12:26;23.00;1.00
3701;DHT22;1866;48.374;10.766;2023-06-22T07:14:52;22.70;1.00
3701;DHT22;1866;48.374;10.766;2023-06-22T07:17:19;22.70;1.00
3701;DHT22;1866;48.374;10.766;2023-06-22T07:19:46;23.10;1.00
3701;DHT22;1866;48.374;10.766;2023-06-22T07:22:14;23.20;1.00
3701;DHT22;1866;48.374;10.766;2023-06-22T07:24:41;23.50;1.00
3701;DHT22;1866;48.374;10.766;2023-06-22T07:27:08;23.30;1.00
3701;DHT22;1866;48.374;10.766;2023-06-22T07:29:36;23.60;1.00
3701;DHT22;1866;48.374;10.766;2023-06-22T07:32:05;24.00;1.00
3701;DHT22;1866;48.374;10.766;2023-06-22T07:34:32;24.00;1.00
3701;DHT22;1866;48.374;10.766;2023-06-22T07:36:59;23.80;1.00
3701;DHT22;1866;48.374;10.766;2023-06-22T07:39:27;24.20;1.00
3701;DHT22;1866;48.374;10.766;2023-06-22T07:41:53;24.10;1.00
3701;DHT22;1866;48.374;10.766;2023-06-22T07:44:20;24.30;1.00
3701;DHT22;1866;48.374;10.766;2023-06-22T07:46:47;24.50;1.00
3701;DHT22;1866;48.374;10.766;2023-06-22T07:49:13;25.00;1.00
3701;DHT22;1866;48.374;10.766;2023-06-22T07:51:40;24.90;1.00
3701;DHT22;1866;48.374;10.766;2023-06-22T07:54:07;25.20;1.00
3701;DHT22;1866;48.374;10.766;2023-06-22T07:56:36;25.20;1.00
3701;DHT22;1866;48.374;10.766;2023-06-22T07:59:02;25.10;1.00
3701;DHT22;1866;48.374;10.766;2023-06-22T08:01:29;25.20;1.00
3701;DHT22;1866;48.374;10.766;2023-06-22T08:03:56;25.40;1.00
3701;DHT22;1866;48.374;10.766;2023-06-22T08:06:22;25.20;1.00
3701;DHT22;1866;48.374;10.766;2023-06-22T08:08:49;25.50;1.00
3701;DHT22;1866;48.374;10.766;2023-06-22T08:11:18;25.00;1.00
3701;DHT22;1866;48.374;10.766;2023-06-22T08:13:46;25.10;1.00
3701;DHT22;1866;48.374;10.766;2023-06-22T08:16:12;25.50;1.00
3701;DHT22;1866;48.374;10.766;2023-06-22T08:18:39;25.70;1.00
3701;DHT22;1866;48.374;10.766;2023-06-22T08:21:06;25.90;1.00
3701;DHT22;1866;48.374;10.766;2023-06-22T08:23:32;26.00;1.00
3701;DHT22;1866;48.374;10.766;2023-06-22T08:25:59;26.10;1.00
3701;DHT22;1866;48.374;10.766;2023-06-22T08:28:25;26.10;1.00
3701;DHT22;1866;48.374;10.766;2023-06-22T08:30:53;26.00;1.00
3701;DHT22;1866;48.374;10.766;2023-06-22T08:33:20;26.20;1.00
3701;DHT22;1866;48.374;10.766;2023-06-22T08:35:49;26.00;1.00
3701;DHT22;1866;48.374;10.766;2023-06-22T08:38:15;26.00;1.00
3701;DHT22;1866;48.374;10.766;2023-06-22T08:40:44;26.10;1.00
3701;DHT22;1866;48.374;10.766;2023-06-22T08:43:10;26.10;1.00
3701;DHT22;1866;48.374;10.766;2023-06-22T08:45:37;26.30;1.00
3701;DHT22;1866;48.374;10.766;2023-06-22T08:48:05;26.30;1.00
3701;DHT22;1866;48.374;10.766;2023-06-22T08:50:32;26.20;1.00
3701;DHT22;1866;48.374;10.766;2023-06-22T08:52:58;26.10;1.00
3701;DHT22;1866;48.374;10.766;2023-06-22T08:55:25;26.30;1.00
3701;DHT22;1866;48.374;10.766;2023-06-22T08:57:52;26.60;1.00
3701;DHT22;1866;48.374;10.766;2023-06-22T09:00:18;26.50;1.00
3701;DHT22;1866;48.374;10.766;2023-06-22T09:02:46;26.50;1.00
3701;DHT22;1866;48.374;10.766;2023-06-22T09:05:14;26.60;1.00
3701;DHT22;1866;48.374;10.766;2023-06-22T09:07:41;26.50;1.00
3701;DHT22;1866;48.374;10.766;2023-06-22T09:10:08;26.40;1.00
3701;DHT22;1866;48.374;10.766;2023-06-22T09:12:35;26.90;1.00
3701;DHT22;1866;48.374;10.766;2023-06-22T09:15:03;26.90;1.00
3701;DHT22;1866;48.374;10.766;2023-06-22T09:17:32;26.90;1.00
3701;DHT22;1866;48.374;10.766;2023-06-22T09:19:59;26.80;1.00
3701;DHT22;1866;48.374;10.766;2023-06-22T09:22:27;26.80;1.00
3701;DHT22;1866;48.374;10.766;2023-06-22T09:24:54;27.20;1.00
3701;DHT22;1866;48.374;10.766;2023-06-22T09:27:21;27.20;1.00
3701;DHT22;1866;48.374;10.766;2023-06-22T09:29:48;27.20;1.00
3701;DHT22;1866;48.374;10.766;2023-06-22T09:32:14;27.40;1.00
3701;DHT22;1866;48.374;10.766;2023-06-22T09:34:41;27.50;1.00
3701;DHT22;1866;48.374;10.766;2023-06-22T09:37:08;27.70;1.00
3701;DHT22;1866;48.374;10.766;2023-06-22T09:39:36;27.50;1.00
3701;DHT22;1866;48.374;10.766;2023-06-22T09:42:03;27.80;1.00
3701;DHT22;1866;48.374;10.766;2023-06-22T09:44:30;27.80;1.00
3701;DHT22;1866;48.374;10.766;2023-06-22T09:46:57;28.00;1.00
3701;DHT22;1866;48.374;10.766;2023-06-22T09:49:24;28.10;1.00
3701;DHT22;1866;48.374;10.766;2023-06-22T09:51:51;27.60;1.00
3701;DHT22;1866;48.374;10.766;2023-06-22T09:54:18;27.90;1.00
3701;DHT22;1866;48.374;10.766;2023-06-22T09:56:46;28.20;1.00
3701;DHT22;1866;48.374;10.766;2023-06-22T09:59:12;27.90;1.00
3701;DHT22;1866;48.374;10.766;2023-06-22T10:01:39;27.60;1.00
3701;DHT22;1866;48.374;10.766;2023-06-22T10:04:06;27.90;1.00
3701;DHT22;1866;48.374;10.766;2023-06-22T10:06:32;28.50;1.00
3701;DHT22;1866;48.374;10.766;2023-06-22T10:08:59;28.90;1.00
3701;DHT22;1866;48.374;10.766;2023-06-22T10:11:26;28.60;1.00
3701;DHT22;1866;48.374;10.766;2023-06-22T10:13:56;28.60;1.00
3701;DHT22;1866;48.374;10.766;2023-06-22T10:16:23;28.60;1.00
3701;DHT22;1866;48.374;10.766;2023-06-22T10:18:52;28.40;1.00
3701;DHT22;1866;48.374;10.766;2023-06-22T10:21:18;28.20;1.00
3701;DHT22;1866;48.374;10.766;2023-06-22T10:23:45;28.40;1.00
3701;DHT22;1866;48.374;10.766;2023-06-22T10:26:11;28.70;1.00
3701;DHT22;1866;48.374;10.766;2023-06-22T10:28:38;28.60;1.00
3701;DHT22;1866;48.374;10.766;2023-06-22T10:31:06;28.90;1.00
3701;DHT22;1866;48.374;10.766;2023-06-22T10:33:33;29.00;1.00
3701;DHT22;1866;48.374;10.766;2023-06-22T10:35:59;28.50;1.00
3701;DHT22;1866;48.374;10.766;2023-06-22T10:38:26;28.70;1.00
3701;DHT22;1866;48.374;10.766;2023-06-22T10:40:53;28.80;1.00
3701;DHT22;1866;48.374;10.766;2023-06-22T10:43:19;29.00;1.00
3701;DHT22;1866;48.374;10.766;2023-06-22T10:45:46;28.90;1.00
3701;DHT22;1866;48.374;10.766;2023-06-22T10:48:14;29.30;1.00
3701;DHT22;1866;48.374;10.766;2023-06-22T10:50:40;29.70;1.00
3701;DHT22;1866;48.374;10.766;2023-06-22T10:53:07;29.80;1.00
3701;DHT22;1866;48.374;10.766;2023-06-22T10:55:34;29.90;1.00
3701;DHT22;1866;48.374;10.766;2023-06-22T10:58:00;29.80;1.00
3701;DHT22;1866;48.374;10.766;2023-06-22T11:00:27;29.70;1.00
3701;DHT22;1866;48.374;10.766;2023-06-22T11:02:54;29.90;1.00
3701;DHT22;1866;48.374;10.766;2023-06-22T11:05:22;30.00;1.00
3701;DHT22;1866;48.374;10.766;2023-06-22T11:07:48;29.60;1.00
3701;DHT22;1866;48.374;10.766;2023-06-22T11:10:15;29.60;1.00
3701;DHT22;1866;48.374;10.766;2023-06-22T11:12:42;29.90;1.00
3701;DHT22;1866;48.374;10.766;2023-06-22T11:15:09;30.10;1.00
3701;DHT22;1866;48.374;10.766;2023-06-22T11:17:35;30.20;1.00
3701;DHT22;1866;48.374;10.766;2023-06-22T11:20:02;30.50;1.00
3701;DHT22;1866;48.374;10.766;2023-06-22T11:22:37;30.50;1.00
3701;DHT22;1866;48.374;10.766;2023-06-22T11:25:05;30.60;1.00
3701;DHT22;1866;48.374;10.766;2023-06-22T11:27:31;30.70;1.00
3701;DHT22;1866;48.374;10.766;2023-06-22T11:29:58;30.80;1.00
3701;DHT22;1866;48.374;10.766;2023-06-22T11:32:25;31.00;1.00
3701;DHT22;1866;48.374;10.766;2023-06-22T11:34:51;31.20;1.00
3701;DHT22;1866;48.374;10.766;2023-06-22T11:37:19;31.00;1.00
3701;DHT22;1866;48.374;10.766;2023-06-22T11:39:48;30.70;1.00
3701;DHT22;1866;48.374;10.766;2023-06-22T11:42:16;30.80;1.00
3701;DHT22;1866;48.374;10.766;2023-06-22T11:44:43;31.10;1.00
3701;DHT22;1866;48.374;10.766;2023-06-22T11:47:10;31.20;1.00
3701;DHT22;1866;48.374;10.766;2023-06-22T11:49:36;31.30;1.00
3701;DHT22;1866;48.374;10.766;2023-06-22T11:52:03;31.10;1.00
3701;DHT22;1866;48.374;10.766;2023-06-22T11:54:30;31.20;1.00
3701;DHT22;1866;48.374;10.766;2023-06-22T11:56:58;31.30;1.00
3701;DHT22;1866;48.374;10.766;2023-06-22T11:59:25;31.30;1.00
3701;DHT22;1866;48.374;10.766;2023-06-22T12:01:51;30.40;1.00
3701;DHT22;1866;48.374;10.766;2023-06-22T12:04:20;30.40;1.00
3701;DHT22;1866;48.374;10.766;2023-06-22T12:06:47;30.50;1.00
3701;DHT22;1866;48.374;10.766;2023-06-22T12:09:14;30.40;1.00
3701;DHT22;1866;48.374;10.766;2023-06-22T12:11:41;30.50;1.00
3701;DHT22;1866;48.374;10.766;2023-06-22T12:14:11;30.90;1.00
3701;DHT22;1866;48.374;10.766;2023-06-22T12:16:38;31.00;1.00
3701;DHT22;1866;48.374;10.766;2023-06-22T12:19:04;30.90;1.00
3701;DHT22;1866;48.374;10.766;2023-06-22T12:21:31;31.00;1.00
3701;DHT22;1866;48.374;10.766;2023-06-22T12:23:58;31.10;1.00
3701;DHT22;1866;48.374;10.766;2023-06-22T12:26:24;31.30;1.00
3701;DHT22;1866;48.374;10.766;2023-06-22T12:28:51;31.40;1.00
3701;DHT22;1866;48.374;10.766;2023-06-22T12:31:19;31.20;1.00
3701;DHT22;1866;48.374;10.766;2023-06-22T12:33:46;31.00;1.00
3701;DHT22;1866;48.374;10.766;2023-06-22T12:36:12;31.20;1.00
3701;DHT22;1866;48.374;10.766;2023-06-22T12:38:39;31.50;1.00
3701;DHT22;1866;48.374;10.766;2023-06-22T12:41:06;31.60;1.00
3701;DHT22;1866;48.374;10.766;2023-06-22T12:43:32;32.00;1.00
3701;DHT22;1866;48.374;10.766;2023-06-22T12:46:00;32.40;1.00
3701;DHT22;1866;48.374;10.766;2023-06-22T12:48:28;32.20;1.00
3701;DHT22;1866;48.374;10.766;2023-06-22T12:50:55;32.20;1.00
3701;DHT22;1866;48.374;10.766;2023-06-22T12:53:21;31.80;1.00
3701;DHT22;1866;48.374;10.766;2023-06-22T12:55:49;31.50;1.00
3701;DHT22;1866;48.374;10.766;2023-06-22T12:58:16;31.50;1.00
3701;DHT22;1866;48.374;10.766;2023-06-22T13:00:44;32.00;1.00
3701;DHT22;1866;48.374;10.766;2023-06-22T13:03:12;32.40;1.00
3701;DHT22;1866;48.374;10.766;2023-06-22T13:05:40;32.50;1.00
3701;DHT22;1866;48.374;10.766;2023-06-22T13:08:07;32.20;1.00
3701;DHT22;1866;48.374;10.766;2023-06-22T13:10:37;31.80;1.00
3701;DHT22;1866;48.374;10.766;2023-06-22T13:13:04;31.60;1.00
3701;DHT22;1866;48.374;10.766;2023-06-22T13:15:31;31.60;1.00
3701;DHT22;1866;48.374;10.766;2023-06-22T13:17:59;31.20;1.00
3701;DHT22;1866;48.374;10.766;2023-06-22T13:20:28;31.20;1.00
3701;DHT22;1866;48.374;10.766;2023-06-22T13:22:56;31.50;1.00
3701;DHT22;1866;48.374;10.766;2023-06-22T13:25:23;31.70;1.00
3701;DHT22;1866;48.374;10.766;2023-06-22T13:27:51;32.20;1.00
3701;DHT22;1866;48.374;10.766;2023-06-22T13:30:18;32.40;1.00
3701;DHT22;1866;48.374;10.766;2023-06-22T13:32:45;32.40;1.00
3701;DHT22;1866;48.374;10.766;2023-06-22T13:35:11;32.90;1.00
3701;DHT22;1866;48.374;10.766;2023-06-22T13:37:38;32.60;1.00
3701;DHT22;1866;48.374;10.766;2023-06-22T13:40:07;32.20;1.00
3701;DHT22;1866;48.374;10.766;2023-06-22T13:42:35;32.30;1.00
3701;DHT22;1866;48.374;10.766;2023-06-22T13:45:02;32.40;1.00
3701;DHT22;1866;48.374;10.766;2023-06-22T13:47:29;32.70;1.00
3701;DHT22;1866;48.374;10.766;2023-06-22T13:49:56;32.50;1.00
3701;DHT22;1866;48.374;10.766;2023-06-22T13:52:24;32.50;1.00
3701;DHT22;1866;48.374;10.766;2023-06-22T13:54:50;32.40;1.00
3701;DHT22;1866;48.374;10.766;2023-06-22T13:57:18;32.00;1.00
3701;DHT22;1866;48.374;10.766;2023-06-22T13:59:45;31.80;1.00
3701;DHT22;1866;48.374;10.766;2023-06-22T14:02:20;31.50;1.00
3701;DHT22;1866;48.374;10.766;2023-06-22T14:04:47;31.60;1.00
3701;DHT22;1866;48.374;10.766;2023-06-22T14:07:14;31.80;1.00
3701;DHT22;1866;48.374;10.766;2023-06-22T14:09:40;32.20;1.00
3701;DHT22;1866;48.374;10.766;2023-06-22T14:12:09;32.40;1.00
3701;DHT22;1866;48.374;10.766;2023-06-22T14:14:38;32.40;1.00
3701;DHT22;1866;48.374;10.766;2023-06-22T14:17:05;32.40;1.00
3701;DHT22;1866;48.374;10.766;2023-06-22T14:19:32;32.20;1.00
3701;DHT22;1866;48.374;10.766;2023-06-22T14:21:58;32.20;1.00
3701;DHT22;1866;48.374;10.766;2023-06-22T14:24:25;32.30;1.00
3701;DHT22;1866;48.374;10.766;2023-06-22T14:26:52;32.40;1.00
3701;DHT22;1866;48.374;10.766;2023-06-22T14:29:18;32.40;1.00
3701;DHT22;1866;48.374;10.766;2023-06-22T14:31:47;32.60;1.00
3701;DHT22;1866;48.374;10.766;2023-06-22T14:34:14;32.70;1.00
3701;DHT22;1866;48.374;10.766;2023-06-22T14:36:41;32.80;1.00
3701;DHT22;1866;48.374;10.766;2023-06-22T14:39:08;32.90;1.00
3701;DHT22;1866;48.374;10.766;2023-06-22T14:41:34;32.90;1.00
3701;DHT22;1866;48.374;10.766;2023-06-22T14:44:01;32.90;1.00
3701;DHT22;1866;48.374;10.766;2023-06-22T14:46:29;33.00;1.00
3701;DHT22;1866;48.374;10.766;2023-06-22T14:48:59;33.20;1.00
3701;DHT22;1866;48.374;10.766;2023-06-22T14:51:26;33.00;1.00
3701;DHT22;1866;48.374;10.766;2023-06-22T14:53:54;33.00;1.00
3701;DHT22;1866;48.374;10.766;2023-06-22T14:56:20;33.20;1.00
3701;DHT22;1866;48.374;10.766;2023-06-22T14:58:48;33.20;1.00
3701;DHT22;1866;48.374;10.766;2023-06-22T15:01:16;33.40;1.00
3701;DHT22;1866;48.374;10.766;2023-06-22T15:03:43;33.10;1.00
3701;DHT22;1866;48.374;10.766;2023-06-22T15:06:11;33.00;1.00
3701;DHT22;1866;48.374;10.766;2023-06-22T15:08:37;32.80;1.00
3701;DHT22;1866;48.374;10.766;2023-06-22T15:11:05;32.60;1.00
3701;DHT22;1866;48.374;10.766;2023-06-22T15:13:31;32.80;1.00
3701;DHT22;1866;48.374;10.766;2023-06-22T15:15:59;33.00;1.00
3701;DHT22;1866;48.374;10.766;2023-06-22T15:18:25;33.00;1.00
3701;DHT22;1866;48.374;10.766;2023-06-22T15:20:52;32.80;1.00
3701;DHT22;1866;48.374;10.766;2023-06-22T15:23:20;32.50;1.00
3701;DHT22;1866;48.374;10.766;2023-06-22T15:25:47;32.50;1.00
3701;DHT22;1866;48.374;10.766;2023-06-22T15:28:15;32.50;1.00
3701;DHT22;1866;48.374;10.766;2023-06-22T15:30:41;32.20;1.00
3701;DHT22;1866;48.374;10.766;2023-06-22T15:33:08;32.20;1.00
3701;DHT22;1866;48.374;10.766;2023-06-22T15:35:35;32.10;1.00
3701;DHT22;1866;48.374;10.766;2023-06-22T15:38:03;32.00;1.00
3701;DHT22;1866;48.374;10.766;2023-06-22T15:40:31;31.70;1.00
3701;DHT22;1866;48.374;10.766;2023-06-22T15:42:58;31.50;1.00
3701;DHT22;1866;48.374;10.766;2023-06-22T15:45:26;31.50;1.00
3701;DHT22;1866;48.374;10.766;2023-06-22T15:47:53;31.50;1.00
3701;DHT22;1866;48.374;10.766;2023-06-22T15:50:19;31.60;1.00
3701;DHT22;1866;48.374;10.766;2023-06-22T15:52:46;31.50;1.00
3701;DHT22;1866;48.374;10.766;2023-06-22T15:55:15;31.40;1.00
3701;DHT22;1866;48.374;10.766;2023-06-22T15:57:45;31.30;1.00
3701;DHT22;1866;48.374;10.766;2023-06-22T16:00:13;31.20;1.00
3701;DHT22;1866;48.374;10.766;2023-06-22T16:02:41;31.20;1.00
3701;DHT22;1866;48.374;10.766;2023-06-22T16:05:10;31.20;1.00
3701;DHT22;1866;48.374;10.766;2023-06-22T16:07:37;31.20;1.00
3701;DHT22;1866;48.374;10.766;2023-06-22T16:10:04;31.10;1.00
3701;DHT22;1866;48.374;10.766;2023-06-22T16:12:30;31.10;1.00
3701;DHT22;1866;48.374;10.766;2023-06-22T16:14:59;31.00;1.00
3701;DHT22;1866;48.374;10.766;2023-06-22T16:17:26;31.00;1.00
3701;DHT22;1866;48.374;10.766;2023-06-22T16:19:53;31.00;1.00
3701;DHT22;1866;48.374;10.766;2023-06-22T16:22:20;31.00;1.00
3701;DHT22;1866;48.374;10.766;2023-06-22T16:24:47;30.90;1.00
3701;DHT22;1866;48.374;10.766;2023-06-22T16:27:14;30.80;1.00
3701;DHT22;1866;48.374;10.766;2023-06-22T16:29:40;30.70;1.00
3701;DHT22;1866;48.374;10.766;2023-06-22T16:32:09;30.60;1.00
3701;DHT22;1866;48.374;10.766;2023-06-22T16:34:35;30.70;1.00
3701;DHT22;1866;48.374;10.766;2023-06-22T16:37:05;30.70;1.00
3701;DHT22;1866;48.374;10.766;2023-06-22T16:39:31;30.50;1.00
3701;DHT22;1866;48.374;10.766;2023-06-22T16:41:58;30.30;1.00
3701;DHT22;1866;48.374;10.766;2023-06-22T16:44:24;30.10;1.00
3701;DHT22;1866;48.374;10.766;2023-06-22T16:46:51;29.90;1.00
3701;DHT22;1866;48.374;10.766;2023-06-22T16:49:19;29.70;1.00
3701;DHT22;1866;48.374;10.766;2023-06-22T16:51:47;29.50;1.00
3701;DHT22;1866;48.374;10.766;2023-06-22T16:54:14;29.30;1.00
3701;DHT22;1866;48.374;10.766;2023-06-22T16:56:42;29.20;1.00
3701;DHT22;1866;48.374;10.766;2023-06-22T16:59:09;28.90;1.00
3701;DHT22;1866;48.374;10.766;2023-06-22T17:01:36;28.20;1.00
3701;DHT22;1866;48.374;10.766;2023-06-22T17:04:04;27.80;1.00
3701;DHT22;1866;48.374;10.766;2023-06-22T17:06:34;27.60;1.00
3701;DHT22;1866;48.374;10.766;2023-06-22T17:09:02;28.00;1.00
3701;DHT22;1866;48.374;10.766;2023-06-22T17:11:30;28.10;1.00
3701;DHT22;1866;48.374;10.766;2023-06-22T17:13:57;28.10;1.00
3701;DHT22;1866;48.374;10.766;2023-06-22T17:16:24;28.20;1.00
3701;DHT22;1866;48.374;10.766;2023-06-22T17:18:52;28.30;1.00
3701;DHT22;1866;48.374;10.766;2023-06-22T17:21:22;28.50;1.00
3701;DHT22;1866;48.374;10.766;2023-06-22T17:23:50;28.40;1.00
3701;DHT22;1866;48.374;10.766;2023-06-22T17:26:17;28.40;1.00
3701;DHT22;1866;48.374;10.766;2023-06-22T17:28:48;28.50;1.00
3701;DHT22;1866;48.374;10.766;2023-06-22T17:31:15;28.40;1.00
3701;DHT22;1866;48.374;10.766;2023-06-22T17:33:42;28.10;1.00
3701;DHT22;1866;48.374;10.766;2023-06-22T17:36:12;27.90;1.00
3701;DHT22;1866;48.374;10.766;2023-06-22T17:38:41;27.80;1.00
3701;DHT22;1866;48.374;10.766;2023-06-22T17:41:10;27.70;1.00
3701;DHT22;1866;48.374;10.766;2023-06-22T17:43:43;27.30;1.00
3701;DHT22;1866;48.374;10.766;2023-06-22T17:46:11;27.30;1.00
3701;DHT22;1866;48.374;10.766;2023-06-22T17:48:38;27.20;1.00
3701;DHT22;1866;48.374;10.766;2023-06-22T17:51:04;27.20;1.00
3701;DHT22;1866;48.374;10.766;2023-06-22T17:53:33;27.10;1.00
3701;DHT22;1866;48.374;10.766;2023-06-22T17:56:00;27.00;1.00
3701;DHT22;1866;48.374;10.766;2023-06-22T17:58:29;26.90;1.00
3701;DHT22;1866;48.374;10.766;2023-06-22T18:00:56;26.70;1.00
3701;DHT22;1866;48.374;10.766;2023-06-22T18:03:24;26.60;1.00
3701;DHT22;1866;48.374;10.766;2023-06-22T18:05:50;26.50;1.00
3701;DHT22;1866;48.374;10.766;2023-06-22T18:08:17;26.30;1.00
3701;DHT22;1866;48.374;10.766;2023-06-22T18:10:47;26.10;1.00
3701;DHT22;1866;48.374;10.766;2023-06-22T18:13:14;26.10;1.00
3701;DHT22;1866;48.374;10.766;2023-06-22T18:15:46;26.20;1.00
3701;DHT22;1866;48.374;10.766;2023-06-22T18:18:12;26.20;1.00
3701;DHT22;1866;48.374;10.766;2023-06-22T18:20:39;26.10;1.00
3701;DHT22;1866;48.374;10.766;2023-06-22T18:23:06;25.90;1.00
3701;DHT22;1866;48.374;10.766;2023-06-22T18:25:34;25.60;1.00
3701;DHT22;1866;48.374;10.766;2023-06-22T18:28:02;25.50;1.00
3701;DHT22;1866;48.374;10.766;2023-06-22T18:30:29;25.40;1.00
3701;DHT22;1866;48.374;10.766;2023-06-22T18:32:57;25.20;1.00
3701;DHT22;1866;48.374;10.766;2023-06-22T18:35:25;25.00;1.00
3701;DHT22;1866;48.374;10.766;2023-06-22T18:37:52;24.90;1.00
3701;DHT22;1866;48.374;10.766;2023-06-22T18:40:19;24.90;1.00
3701;DHT22;1866;48.374;10.766;2023-06-22T18:42:46;24.90;1.00
3701;DHT22;1866;48.374;10.766;2023-06-22T18:45:22;25.00;1.00
3701;DHT22;1866;48.374;10.766;2023-06-22T18:47:54;24.90;1.00
3701;DHT22;1866;48.374;10.766;2023-06-22T18:50:35;25.00;1.00
3701;DHT22;1866;48.374;10.766;2023-06-22T18:53:02;25.10;1.00
3701;DHT22;1866;48.374;10.766;2023-06-22T18:55:30;25.20;1.00
3701;DHT22;1866;48.374;10.766;2023-06-22T19:00:40;25.10;1.00
3701;DHT22;1866;48.374;10.766;2023-06-22T19:03:08;25.00;1.00
3701;DHT22;1866;48.374;10.766;2023-06-22T19:05:39;24.90;1.00
3701;DHT22;1866;48.374;10.766;2023-06-22T19:08:06;24.80;1.00
3701;DHT22;1866;48.374;10.766;2023-06-22T19:10:43;24.70;1.00
3701;DHT22;1866;48.374;10.766;2023-06-22T19:13:24;24.60;1.00
3701;DHT22;1866;48.374;10.766;2023-06-22T19:15:52;24.70;1.00
3701;DHT22;1866;48.374;10.766;2023-06-22T19:18:21;24.70;1.00
3701;DHT22;1866;48.374;10.766;2023-06-22T19:20:51;24.50;1.00
3701;DHT22;1866;48.374;10.766;2023-06-22T19:23:24;24.30;1.00
3701;DHT22;1866;48.374;10.766;2023-06-22T19:25:51;24.10;1.00
3701;DHT22;1866;48.374;10.766;2023-06-22T19:28:22;23.90;1.00
3701;DHT22;1866;48.374;10.766;2023-06-22T19:30:50;23.80;1.00
3701;DHT22;1866;48.374;10.766;2023-06-22T19:33:18;23.70;1.00
3701;DHT22;1866;48.374;10.766;2023-06-22T19:35:45;23.70;1.00
3701;DHT22;1866;48.374;10.766;2023-06-22T19:38:16;23.50;1.00
3701;DHT22;1866;48.374;10.766;2023-06-22T19:40:43;23.00;1.00
3701;DHT22;1866;48.374;10.766;2023-06-22T19:43:11;21.80;1.00
3701;DHT22;1866;48.374;10.766;2023-06-22T19:45:39;21.40;1.00
3701;DHT22;1866;48.374;10.766;2023-06-22T19:48:07;21.10;1.00
3701;DHT22;1866;48.374;10.766;2023-06-22T19:50:35;21.00;1.00
3701;DHT22;1866;48.374;10.766;2023-06-22T19:53:06;20.90;1.00
3701;DHT22;1866;48.374;10.766;2023-06-22T19:58:17;20.60;1.00
3701;DHT22;1866;48.374;10.766;2023-06-22T20:00:44;20.50;1.00
3701;DHT22;1866;48.374;10.766;2023-06-22T20:03:15;20.40;1.00
3701;DHT22;1866;48.374;10.766;2023-06-22T20:05:42;20.40;1.00
3701;DHT22;1866;48.374;10.766;2023-06-22T20:08:10;20.40;1.00
3701;DHT22;1866;48.374;10.766;2023-06-22T20:10:37;20.50;1.00
3701;DHT22;1866;48.374;10.766;2023-06-22T20:13:09;20.50;1.00
3701;DHT22;1866;48.374;10.766;2023-06-22T20:15:40;20.50;1.00
3701;DHT22;1866;48.374;10.766;2023-06-22T20:18:08;20.40;1.00
3701;DHT22;1866;48.374;10.766;2023-06-22T20:20:36;20.40;1.00
3701;DHT22;1866;48.374;10.766;2023-06-22T20:23:04;20.40;1.00
3701;DHT22;1866;48.374;10.766;2023-06-22T20:25:34;20.40;1.00
3701;DHT22;1866;48.374;10.766;2023-06-22T20:28:05;20.40;1.00
3701;DHT22;1866;48.374;10.766;2023-06-22T20:30:33;20.40;1.00
3701;DHT22;1866;48.374;10.766;2023-06-22T20:33:02;20.50;1.00
3701;DHT22;1866;48.374;10.766;2023-06-22T20:35:31;20.50;1.00
3701;DHT22;1866;48.374;10.766;2023-06-22T20:37:57;20.50;1.00
3701;DHT22;1866;48.374;10.766;2023-06-22T20:40:24;20.50;1.00
3701;DHT22;1866;48.374;10.766;2023-06-22T20:42:55;20.50;1.00
3701;DHT22;1866;48.374;10.766;2023-06-22T20:45:22;20.50;1.00
3701;DHT22;1866;48.374;10.766;2023-06-22T20:47:50;20.50;1.00
3701;DHT22;1866;48.374;10.766;2023-06-22T20:50:19;20.50;1.00
3701;DHT22;1866;48.374;10.766;2023-06-22T20:52:45;20.50;1.00
3701;DHT22;1866;48.374;10.766;2023-06-22T20:55:13;20.50;1.00
3701;DHT22;1866;48.374;10.766;2023-06-22T20:57:40;20.50;1.00
3701;DHT22;1866;48.374;10.766;2023-06-22T21:00:09;20.50;1.00
3701;DHT22;1866;48.374;10.766;2023-06-22T21:02:37;20.50;1.00
3701;DHT22;1866;48.374;10.766;2023-06-22T21:05:04;20.40;1.00
3701;DHT22;1866;48.374;10.766;2023-06-22T21:07:32;20.50;1.00
3701;DHT22;1866;48.374;10.766;2023-06-22T21:09:59;20.40;1.00
3701;DHT22;1866;48.374;10.766;2023-06-22T21:12:26;20.40;1.00
3701;DHT22;1866;48.374;10.766;2023-06-22T21:14:53;20.40;1.00
3701;DHT22;1866;48.374;10.766;2023-06-22T21:17:21;20.40;1.00
3701;DHT22;1866;48.374;10.766;2023-06-22T21:19:48;20.40;1.00
3701;DHT22;1866;48.374;10.766;2023-06-22T21:22:15;20.40;1.00
3701;DHT22;1866;48.374;10.766;2023-06-22T21:24:44;20.40;1.00
3701;DHT22;1866;48.374;10.766;2023-06-22T21:27:11;20.30;1.00
3701;DHT22;1866;48.374;10.766;2023-06-22T21:29:38;20.20;1.00
3701;DHT22;1866;48.374;10.766;2023-06-22T21:32:05;20.20;1.00
3701;DHT22;1866;48.374;10.766;2023-06-22T21:34:32;20.30;1.00
3701;DHT22;1866;48.374;10.766;2023-06-22T21:36:59;20.20;1.00
3701;DHT22;1866;48.374;10.766;2023-06-22T21:39:25;20.20;1.00
3701;DHT22;1866;48.374;10.766;2023-06-22T21:41:53;20.20;1.00
3701;DHT22;1866;48.374;10.766;2023-06-22T21:44:21;20.20;1.00
3701;DHT22;1866;48.374;10.766;2023-06-22T21:46:50;20.10;1.00
3701;DHT22;1866;48.374;10.766;2023-06-22T21:49:16;20.10;1.00
3701;DHT22;1866;48.374;10.766;2023-06-22T21:51:43;20.10;1.00
3701;DHT22;1866;48.374;10.766;2023-06-22T21:54:10;20.10;1.00
3701;DHT22;1866;48.374;10.766;2023-06-22T21:56:41;20.10;1.00
3701;DHT22;1866;48.374;10.766;2023-06-22T21:59:11;20.00;1.00
3701;DHT22;1866;48.374;10.766;2023-06-22T22:01:37;20.00;1.00
3701;DHT22;1866;48.374;10.766;2023-06-22T22:04:04;20.00;1.00